Time;durP1;ratioP1;P1;durP2;ratioP2;P2;SDS_P1;SDS_P2;PMS_P1;PMS_P2;Temp;Humidity;BMP_temperature;BMP_pressure;BME280_temperature;BME280_humidity;BME280_pressure;Samples;Min_cycle;Max_cycle;Signal;HPM_P1;HPM_P2
2022/03/08 00:01:52;;;;;;;10.20;8.13;;;4.50;90.30;;;;;;5012840;28;20225;-31
2022/03/08 00:04:19;;;;;;;10.73;8.80;;;4.50;90.20;;;;;;5011268;28;20660;-31
2022/03/08 00:06:49;;;;;;;10.37;7.77;;;4.50;90.20;;;;;;5016819;28;20312;-31
2022/03/08 00:09:20;;;;;;;9.70;7.83;;;4.40;90.20;;;;;;5007995;28;20292;-31
2022/03/08 00:11:47;;;;;;;10.33;8.27;;;4.40;90.20;;;;;;4996602;28;20708;-31
2022/03/08 00:14:14;;;;;;;10.73;7.90;;;4.40;90.20;;;;;;5023645;28;20296;-31
2022/03/08 00:16:44;;;;;;;10.03;7.67;;;4.40;90.30;;;;;;5008608;28;20213;-31
2022/03/08 00:19:14;;;;;;;10.20;7.77;;;4.30;90.20;;;;;;5024290;28;20274;-31
2022/03/08 00:21:42;;;;;;;9.30;7.57;;;4.30;90.20;;;;;;5015484;28;20692;-31
2022/03/08 00:24:09;;;;;;;10.67;7.97;;;4.30;90.20;;;;;;5024171;28;20232;-31
2022/03/08 00:26:36;;;;;;;10.60;7.70;;;4.30;90.20;;;;;;5025994;28;20207;-43
2022/03/08 00:29:04;;;;;;;13.27;8.33;;;4.30;90.20;;;;;;5026558;28;20764;-45
2022/03/08 00:31:31;;;;;;;9.93;7.57;;;4.20;90.10;;;;;;5013113;28;20213;-43
2022/03/08 00:34:04;;;;;;;11.83;7.90;;;4.30;90.20;;;;;;5017644;28;20693;-44
2022/03/08 00:36:32;;;;;;;10.90;8.03;;;4.30;90.20;;;;;;5020830;28;20635;-44
2022/03/08 00:39:02;;;;;;;12.43;7.80;;;4.30;90.20;;;;;;4999705;28;20229;-42
2022/03/08 00:41:29;;;;;;;10.70;7.60;;;4.30;90.20;;;;;;5006803;28;20218;-44
2022/03/08 00:43:59;;;;;;;10.10;7.40;;;4.20;90.10;;;;;;5013026;28;20268;-42
2022/03/08 00:46:26;;;;;;;9.27;7.10;;;4.20;90.20;;;;;;5026116;28;20576;-42
2022/03/08 00:48:55;;;;;;;9.73;7.40;;;4.20;90.10;;;;;;5018349;28;20218;-45
2022/03/08 00:51:23;;;;;;;9.07;7.20;;;4.20;90.10;;;;;;4990196;28;20684;-45
2022/03/08 00:53:51;;;;;;;8.83;7.37;;;4.20;90.10;;;;;;4994069;28;20237;-44
2022/03/08 00:56:18;;;;;;;7.97;6.67;;;4.20;90.10;;;;;;5025635;28;20208;-44
2022/03/08 00:58:48;;;;;;;10.10;7.40;;;4.10;90.10;;;;;;5018453;28;20774;-44
2022/03/08 01:01:15;;;;;;;10.33;7.03;;;4.10;90.10;;;;;;5023290;28;20225;-44
2022/03/08 01:03:43;;;;;;;9.30;7.50;;;4.10;90.10;;;;;;5021465;28;20201;-43
2022/03/08 01:06:13;;;;;;;8.10;6.70;;;4.10;90.10;;;;;;5003031;28;20205;-44
2022/03/08 01:08:40;;;;;;;8.47;6.70;;;4.10;90.10;;;;;;5003668;28;20224;-44
2022/03/08 01:11:13;;;;;;;8.83;7.43;;;4.10;90.00;;;;;;5025582;28;20213;-45
2022/03/08 01:13:42;;;;;;;8.43;6.83;;;4.10;90.00;;;;;;5025136;28;20344;-44
2022/03/08 01:16:10;;;;;;;8.63;6.93;;;4.00;90.00;;;;;;5025458;28;20209;-44
2022/03/08 01:18:39;;;;;;;9.63;7.27;;;4.00;90.00;;;;;;5023716;28;20596;-44
2022/03/08 01:21:07;;;;;;;7.83;6.80;;;4.00;90.00;;;;;;5027486;28;20232;-44
2022/03/08 01:23:34;;;;;;;10.43;7.27;;;4.00;90.00;;;;;;5020400;28;20204;-44
2022/03/08 01:26:04;;;;;;;10.37;7.33;;;3.90;89.90;;;;;;5011178;28;20210;-44
2022/03/08 01:28:31;;;;;;;10.10;7.40;;;3.90;89.90;;;;;;5023138;28;20233;-45
2022/03/08 01:30:58;;;;;;;9.77;7.40;;;3.90;89.90;;;;;;5030520;28;20205;-43
2022/03/08 01:33:26;;;;;;;9.97;7.77;;;3.90;89.90;;;;;;5027099;28;20220;-44
2022/03/08 01:35:54;;;;;;;9.90;7.40;;;3.80;89.80;;;;;;5020917;28;20193;-44
2022/03/08 01:38:24;;;;;;;12.30;7.27;;;3.80;89.80;;;;;;5018966;28;20324;-44
2022/03/08 01:40:54;;;;;;;10.33;7.00;;;3.80;89.80;;;;;;5016743;28;20316;-45
2022/03/08 01:43:21;;;;;;;8.77;7.07;;;3.80;89.80;;;;;;5011168;28;20212;-44
2022/03/08 01:45:49;;;;;;;10.07;7.13;;;3.80;89.80;;;;;;5011021;28;20610;-42
2022/03/08 01:48:19;;;;;;;11.30;7.20;;;3.70;89.70;;;;;;5002097;28;20201;-44
2022/03/08 01:50:46;;;;;;;10.27;7.40;;;3.70;89.70;;;;;;5010867;28;20227;-44
2022/03/08 01:53:14;;;;;;;9.13;7.23;;;3.70;89.70;;;;;;5016017;28;20697;-44
2022/03/08 01:55:43;;;;;;;10.90;7.63;;;3.70;89.70;;;;;;5027969;28;20300;-45
2022/03/08 01:58:16;;;;;;;13.10;7.47;;;3.60;89.60;;;;;;5021457;28;20224;-44
2022/03/08 02:00:43;;;;;;;10.47;7.30;;;3.60;89.60;;;;;;5022761;28;20223;-44
2022/03/08 02:03:11;;;;;;;9.10;7.07;;;3.60;89.50;;;;;;5023199;28;20746;-45
2022/03/08 02:05:41;;;;;;;10.77;7.60;;;3.60;89.50;;;;;;5019846;28;20756;-43
2022/03/08 02:08:14;;;;;;;11.57;7.83;;;3.50;89.40;;;;;;5024357;28;20201;-43
2022/03/08 02:10:42;;;;;;;10.80;6.80;;;3.50;89.40;;;;;;5020032;28;20224;-44
2022/03/08 02:13:09;;;;;;;9.60;6.77;;;3.50;89.40;;;;;;5011692;28;20244;-43
2022/03/08 02:15:39;;;;;;;9.27;7.07;;;3.50;89.40;;;;;;5016451;28;20221;-43
2022/03/08 02:18:06;;;;;;;9.20;6.67;;;3.40;89.30;;;;;;5024535;28;20220;-44
2022/03/08 02:20:33;;;;;;;7.70;6.67;;;3.40;89.30;;;;;;5023751;28;20219;-44
2022/03/08 02:23:03;;;;;;;8.97;6.93;;;3.40;89.30;;;;;;5027378;28;20612;-42
2022/03/08 02:25:32;;;;;;;10.43;6.87;;;3.40;89.30;;;;;;5019944;28;20215;-44
2022/03/08 02:28:00;;;;;;;8.77;7.00;;;3.40;89.30;;;;;;5023010;28;20224;-44
2022/03/08 02:30:30;;;;;;;11.03;6.47;;;3.40;89.30;;;;;;5006845;28;20615;-43
2022/03/08 02:32:57;;;;;;;10.27;7.47;;;3.40;89.40;;;;;;5009501;28;20190;-45
2022/03/08 02:35:30;;;;;;;9.97;7.47;;;3.40;89.40;;;;;;5019089;28;20204;-42
2022/03/08 02:38:01;;;;;;;14.70;7.10;;;3.40;89.40;;;;;;5026688;28;20304;-43
2022/03/08 02:40:31;;;;;;;10.30;7.63;;;3.40;89.40;;;;;;5028579;28;20270;-31
2022/03/08 02:42:59;;;;;;;9.40;7.07;;;3.40;90.00;;;;;;5010922;28;20660;-31
2022/03/08 02:45:31;;;;;;;11.70;6.93;;;3.40;89.40;;;;;;5021662;28;20227;-31
2022/03/08 02:48:05;;;;;;;9.07;6.80;;;3.50;90.10;;;;;;5016751;28;20189;-31
2022/03/08 02:50:32;;;;;;;9.27;7.40;;;3.40;89.40;;;;;;4996173;28;20235;-31
2022/03/08 02:53:00;;;;;;;9.63;7.10;;;3.40;89.50;;;;;;5008851;28;20248;-31
2022/03/08 02:55:29;;;;;;;8.57;6.77;;;3.40;89.40;;;;;;5005498;28;20770;-31
2022/03/08 02:57:59;;;;;;;11.27;7.30;;;3.40;89.40;;;;;;5026954;28;20323;-31
2022/03/08 03:00:30;;;;;;;9.83;7.03;;;3.40;89.40;;;;;;5020787;28;20296;-31
2022/03/08 03:03:00;;;;;;;9.83;7.10;;;3.40;89.30;;;;;;5010762;28;20296;-31
2022/03/08 03:05:27;;;;;;;11.13;6.80;;;3.40;89.30;;;;;;5010173;28;20298;-31
2022/03/08 03:07:55;;;;;;;9.73;7.00;;;3.40;89.40;;;;;;5028158;28;20655;-31
2022/03/08 03:10:23;;;;;;;8.97;7.33;;;3.30;89.30;;;;;;5020973;28;20207;-31
2022/03/08 03:12:53;;;;;;;9.53;7.10;;;3.40;89.30;;;;;;5023765;28;20667;-31
2022/03/08 03:15:21;;;;;;;10.73;7.60;;;3.30;89.50;;;;;;5005084;28;20270;-31
2022/03/08 03:17:50;;;;;;;9.23;7.37;;;3.30;89.30;;;;;;5025532;28;20206;-31
2022/03/08 03:20:20;;;;;;;9.27;7.20;;;3.30;89.40;;;;;;5014450;28;20222;-31
2022/03/08 03:22:49;;;;;;;11.07;7.60;;;3.30;89.30;;;;;;5008447;28;20201;-31
2022/03/08 03:25:17;;;;;;;12.27;7.60;;;3.30;89.40;;;;;;5009667;28;20243;-31
2022/03/08 03:27:45;;;;;;;13.43;7.83;;;3.30;89.40;;;;;;5022961;28;20213;-31
2022/03/08 03:30:18;;;;;;;8.73;7.23;;;3.20;89.40;;;;;;5018912;28;20212;-31
2022/03/08 03:32:45;;;;;;;11.33;7.37;;;3.20;89.30;;;;;;5007020;28;20205;-31
2022/03/08 03:35:14;;;;;;;12.63;7.97;;;3.20;89.30;;;;;;5009286;28;20717;-32
2022/03/08 03:37:44;;;;;;;12.07;7.87;;;3.20;89.20;;;;;;5015749;28;20355;-31
2022/03/08 03:40:12;;;;;;;10.93;7.93;;;3.20;89.30;;;;;;5008122;28;20232;-31
2022/03/08 03:42:40;;;;;;;9.37;7.13;;;3.20;89.20;;;;;;5024399;28;20208;-31
2022/03/08 03:45:08;;;;;;;9.27;7.13;;;3.20;89.30;;;;;;5026014;28;20209;-31
2022/03/08 03:47:35;;;;;;;10.63;7.03;;;3.20;89.30;;;;;;5023305;28;20223;-31
2022/03/08 03:50:11;;;;;;;9.93;6.93;;;3.20;89.30;;;;;;5027683;28;20745;-30
2022/03/08 03:52:39;;;;;;;9.53;7.83;;;3.20;89.40;;;;;;5026625;28;20690;-30
2022/03/08 03:55:11;;;;;;;12.07;7.50;;;3.20;89.30;;;;;;5011736;28;20201;-30
2022/03/08 03:57:38;;;;;;;9.60;7.37;;;3.10;89.30;;;;;;5011077;28;20259;-31
2022/03/08 04:00:10;;;;;;;13.87;7.43;;;3.10;89.20;;;;;;5021057;28;20237;-30
2022/03/08 04:02:38;;;;;;;10.50;7.90;;;3.10;89.30;;;;;;5025444;28;20224;-31
2022/03/08 04:05:07;;;;;;;10.63;8.27;;;3.10;89.30;;;;;;5018365;28;20213;-30
2022/03/08 04:07:37;;;;;;;9.57;7.77;;;3.10;89.40;;;;;;5014916;28;20212;-30
2022/03/08 04:10:10;;;;;;;12.37;8.20;;;3.10;89.40;;;;;;5025916;28;20213;-30
2022/03/08 04:12:43;;;;;;;10.07;7.13;;;3.10;89.30;;;;;;5025813;28;20652;-30
2022/03/08 04:15:12;;;;;;;9.23;7.40;;;3.00;89.30;;;;;;5008741;28;20235;-30
2022/03/08 04:17:40;;;;;;;9.80;7.47;;;3.00;89.30;;;;;;5020501;28;20201;-30
2022/03/08 04:20:09;;;;;;;12.20;7.30;;;3.00;89.30;;;;;;5018869;28;20282;-30
2022/03/08 04:22:39;;;;;;;9.07;6.90;;;3.00;89.30;;;;;;5017200;28;20216;-31
2022/03/08 04:25:07;;;;;;;11.73;8.20;;;2.90;89.20;;;;;;5022788;28;20205;-30
2022/03/08 04:27:37;;;;;;;10.47;7.63;;;2.90;89.20;;;;;;5020983;28;20579;-30
2022/03/08 04:30:08;;;;;;;11.83;8.30;;;2.90;89.20;;;;;;5021360;28;20204;-30
2022/03/08 04:32:35;;;;;;;9.27;7.40;;;2.90;89.20;;;;;;5019966;28;20248;-30
2022/03/08 04:35:03;;;;;;;11.17;7.97;;;2.90;89.20;;;;;;5021108;28;20224;-30
2022/03/08 04:37:33;;;;;;;11.43;7.60;;;2.80;89.40;;;;;;5010938;28;20271;-30
2022/03/08 04:40:00;;;;;;;9.60;7.20;;;2.80;89.10;;;;;;5008340;28;20604;-30
2022/03/08 04:42:27;;;;;;;10.77;7.70;;;2.80;89.20;;;;;;5021264;28;20196;-30
2022/03/08 04:44:59;;;;;;;9.23;6.87;;;2.80;89.30;;;;;;5007915;28;20244;-31
2022/03/08 04:47:26;;;;;;;9.77;7.00;;;2.70;89.50;;;;;;5007202;28;21031;-30
2022/03/08 04:49:54;;;;;;;8.60;7.10;;;2.70;89.20;;;;;;5015107;28;20733;-30
2022/03/08 04:52:23;;;;;;;10.73;7.53;;;2.70;89.30;;;;;;5022427;28;20729;-32
2022/03/08 04:54:51;;;;;;;10.83;7.73;;;2.70;89.20;;;;;;5025826;28;20196;-31
2022/03/08 04:57:18;;;;;;;11.80;7.60;;;2.60;89.30;;;;;;5010308;28;20639;-31
2022/03/08 04:59:45;;;;;;;10.30;7.43;;;2.70;89.20;;;;;;5009111;28;20221;-31
2022/03/08 05:02:14;;;;;;;13.33;7.90;;;2.60;89.10;;;;;;5018578;28;20201;-31
2022/03/08 05:04:44;;;;;;;10.80;8.13;;;2.60;89.20;;;;;;5012911;28;20217;-31
2022/03/08 05:07:14;;;;;;;11.47;7.57;;;2.60;89.40;;;;;;5018847;28;20252;-43
2022/03/08 05:09:41;;;;;;;10.70;8.17;;;2.60;89.20;;;;;;4995621;28;20510;-44
2022/03/08 05:12:11;;;;;;;11.17;8.10;;;2.60;89.20;;;;;;5024835;28;20213;-43
2022/03/08 05:14:39;;;;;;;13.00;8.30;;;2.50;89.20;;;;;;5029212;28;20856;-42
2022/03/08 05:17:08;;;;;;;12.63;8.50;;;2.50;89.20;;;;;;5016229;28;20734;-42
2022/03/08 05:19:35;;;;;;;12.73;8.70;;;2.50;89.20;;;;;;5020229;28;20287;-43
2022/03/08 05:22:03;;;;;;;11.20;8.30;;;2.50;89.20;;;;;;5010513;28;20229;-43
2022/03/08 05:24:30;;;;;;;10.63;8.03;;;2.50;89.20;;;;;;5026079;28;20541;-42
2022/03/08 05:26:58;;;;;;;12.87;8.57;;;2.50;89.20;;;;;;5029948;28;20205;-40
2022/03/08 05:29:28;;;;;;;12.07;8.90;;;2.50;89.20;;;;;;5022962;28;20680;-41
2022/03/08 05:31:58;;;;;;;13.33;8.77;;;2.50;89.20;;;;;;5027138;28;20757;-43
2022/03/08 05:34:25;;;;;;;10.57;8.50;;;2.40;89.20;;;;;;5027246;28;20197;-44
2022/03/08 05:36:58;;;;;;;12.97;9.07;;;2.40;89.20;;;;;;5014668;28;20204;-43
2022/03/08 05:39:27;;;;;;;10.87;8.60;;;2.40;89.50;;;;;;5010708;28;20597;-43
2022/03/08 05:41:54;;;;;;;12.67;9.10;;;2.40;89.60;;;;;;5021670;28;20603;-44
2022/03/08 05:44:24;;;;;;;14.70;8.80;;;2.30;89.20;;;;;;5013128;28;20202;-44
2022/03/08 05:46:54;;;;;;;12.30;9.23;;;2.40;89.30;;;;;;5025340;28;20205;-43
2022/03/08 05:49:22;;;;;;;14.03;8.90;;;2.30;89.30;;;;;;5016094;28;20694;-44
2022/03/08 05:51:50;;;;;;;12.03;9.00;;;2.30;89.30;;;;;;4994018;28;20296;-31
2022/03/08 05:54:17;;;;;;;14.60;9.33;;;2.30;89.40;;;;;;4995109;28;20809;-30
2022/03/08 05:56:44;;;;;;;14.43;10.27;;;2.30;89.30;;;;;;5024409;28;20674;-31
2022/03/08 05:59:12;;;;;;;13.47;9.10;;;2.30;89.30;;;;;;5006955;28;20225;-30
2022/03/08 06:01:44;;;;;;;12.53;8.93;;;2.30;89.30;;;;;;5009221;28;20212;-30
2022/03/08 06:04:11;;;;;;;12.10;8.87;;;2.30;90.00;;;;;;5014492;28;20216;-31
2022/03/08 06:06:41;;;;;;;11.13;8.80;;;2.30;89.50;;;;;;5013256;28;20245;-30
2022/03/08 06:09:10;;;;;;;12.93;9.33;;;2.20;89.40;;;;;;5023606;28;20748;-30
2022/03/08 06:11:37;;;;;;;13.30;9.50;;;2.20;89.40;;;;;;5022208;28;20218;-30
2022/03/08 06:14:05;;;;;;;13.33;9.23;;;2.20;89.30;;;;;;5011102;28;20232;-30
2022/03/08 06:16:37;;;;;;;17.67;9.60;;;2.20;89.50;;;;;;5015234;28;20251;-30
2022/03/08 06:19:05;;;;;;;17.60;10.10;;;2.20;89.40;;;;;;5013697;28;20206;-30
2022/03/08 06:21:32;;;;;;;19.13;9.73;;;2.20;89.40;;;;;;5005406;28;20220;-30
2022/03/08 06:24:02;;;;;;;20.53;10.27;;;2.20;89.40;;;;;;5009174;28;20702;-30
2022/03/08 06:26:31;;;;;;;17.97;10.07;;;2.20;89.50;;;;;;5020176;28;20307;-30
2022/03/08 06:29:00;;;;;;;14.97;9.17;;;2.20;89.50;;;;;;5017223;28;20205;-30
2022/03/08 06:31:30;;;;;;;14.50;9.13;;;2.20;89.60;;;;;;5009217;28;20201;-30
2022/03/08 06:34:00;;;;;;;14.63;9.33;;;2.20;89.60;;;;;;5003497;28;20237;-30
2022/03/08 06:36:29;;;;;;;18.37;9.40;;;2.20;89.70;;;;;;5020819;28;20699;-30
2022/03/08 06:39:02;;;;;;;15.33;9.10;;;2.20;89.70;;;;;;5021971;28;20228;-30
2022/03/08 06:41:32;;;;;;;13.27;9.50;;;2.20;89.70;;;;;;5020093;28;20619;-30
2022/03/08 06:44:00;;;;;;;14.57;9.77;;;2.20;89.90;;;;;;4997448;28;20248;-30
2022/03/08 06:46:32;;;;;;;14.80;9.30;;;2.20;89.90;;;;;;5023058;28;20205;-30
2022/03/08 06:49:00;;;;;;;19.30;9.97;;;2.20;89.80;;;;;;5024888;28;20220;-31
2022/03/08 06:51:27;;;;;;;13.00;9.10;;;2.20;89.80;;;;;;5014758;28;20209;-30
2022/03/08 06:53:59;;;;;;;17.70;9.97;;;2.20;89.80;;;;;;4980622;28;1110743;-31
2022/03/08 06:56:27;;;;;;;17.37;9.47;;;2.20;89.90;;;;;;5019725;28;20201;-30
2022/03/08 06:58:56;;;;;;;18.30;10.17;;;2.20;89.80;;;;;;5013148;28;20204;-30
2022/03/08 07:01:23;;;;;;;14.87;9.37;;;2.30;90.00;;;;;;5011335;28;20328;-30
2022/03/08 07:03:50;;;;;;;15.43;10.03;;;2.20;90.00;;;;;;5022347;28;20201;-30
2022/03/08 07:06:18;;;;;;;16.37;9.33;;;2.30;90.00;;;;;;5024849;28;20205;-30
2022/03/08 07:08:47;;;;;;;14.37;9.23;;;2.30;90.00;;;;;;5027991;28;20271;-31
2022/03/08 07:11:14;;;;;;;17.37;10.13;;;2.30;90.00;;;;;;5012930;28;20247;-30
2022/03/08 07:13:42;;;;;;;30.60;11.30;;;2.30;90.00;;;;;;5009344;28;20220;-30
2022/03/08 07:16:09;;;;;;;21.00;10.53;;;2.30;90.00;;;;;;5020958;28;20229;-30
2022/03/08 07:18:41;;;;;;;26.80;11.30;;;2.40;90.10;;;;;;5014539;28;20202;-31
2022/03/08 07:21:13;;;;;;;23.50;9.83;;;2.40;90.10;;;;;;5011548;28;20554;-31
2022/03/08 07:23:42;;;;;;;26.30;11.03;;;2.40;90.10;;;;;;5014277;28;20237;-30
2022/03/08 07:26:10;;;;;;;18.20;9.37;;;2.40;90.10;;;;;;5022236;28;20291;-38
2022/03/08 07:28:40;;;;;;;13.73;9.30;;;2.50;90.20;;;;;;5019671;28;20202;-30
2022/03/08 07:31:07;;;;;;;18.27;9.77;;;2.50;90.10;;;;;;5020306;28;20699;-31
2022/03/08 07:33:35;;;;;;;18.77;9.93;;;2.50;90.20;;;;;;5019081;28;20234;-30
2022/03/08 07:36:03;;;;;;;16.27;9.47;;;2.60;90.20;;;;;;5007463;28;20592;-30
2022/03/08 07:38:31;;;;;;;18.77;9.87;;;2.60;90.30;;;;;;5025728;28;20248;-31
2022/03/08 07:41:05;;;;;;;14.17;9.10;;;2.60;90.20;;;;;;5017019;28;20292;-31
2022/03/08 07:43:34;;;;;;;15.23;9.80;;;2.60;90.30;;;;;;5022110;28;20521;-31
2022/03/08 07:46:06;;;;;;;14.77;10.17;;;2.60;90.30;;;;;;5009676;28;20232;-31
2022/03/08 07:48:36;;;;;;;16.70;10.33;;;2.70;90.30;;;;;;5009287;28;20197;-31
2022/03/08 07:51:04;;;;;;;18.27;10.20;;;2.70;90.30;;;;;;5019413;28;20197;-31
2022/03/08 07:53:33;;;;;;;12.33;9.00;;;2.70;90.40;;;;;;4994389;28;20264;-31
2022/03/08 07:56:00;;;;;;;18.90;9.07;;;2.80;90.40;;;;;;4996180;28;20744;-31
2022/03/08 07:58:27;;;;;;;16.03;9.77;;;2.80;90.40;;;;;;5004875;28;20217;-36
2022/03/08 08:00:55;;;;;;;14.43;9.47;;;2.90;90.50;;;;;;5006601;28;20268;-31
2022/03/08 08:03:28;;;;;;;11.67;9.20;;;2.90;90.50;;;;;;5000929;28;20696;-30
2022/03/08 08:05:55;;;;;;;12.47;9.00;;;2.90;90.50;;;;;;4988732;28;20235;-30
2022/03/08 08:08:23;;;;;;;12.40;8.57;;;3.00;90.50;;;;;;4993918;28;20226;-30
2022/03/08 08:10:52;;;;;;;14.03;9.03;;;3.10;90.60;;;;;;5003108;28;20210;-30
2022/03/08 08:13:19;;;;;;;11.17;8.43;;;3.10;90.60;;;;;;4991643;28;20214;-30
2022/03/08 08:15:47;;;;;;;11.83;8.30;;;3.10;90.60;;;;;;5007386;28;20229;-31
2022/03/08 08:18:20;;;;;;;13.10;8.50;;;3.20;90.70;;;;;;5004295;28;20613;-30
2022/03/08 08:20:50;;;;;;;13.90;8.80;;;3.30;90.70;;;;;;5003737;28;20609;-31
2022/03/08 08:23:20;;;;;;;12.50;8.07;;;3.30;90.70;;;;;;4992164;28;20209;-30
2022/03/08 08:25:48;;;;;;;11.33;8.13;;;3.40;90.80;;;;;;4988441;28;20684;-31
2022/03/08 08:28:17;;;;;;;12.50;8.80;;;3.50;90.80;;;;;;4990892;28;20701;-31
2022/03/08 08:30:45;;;;;;;11.60;8.87;;;3.50;90.90;;;;;;5004393;28;20202;-31
2022/03/08 08:33:14;;;;;;;10.90;7.87;;;3.60;90.90;;;;;;5001839;28;20209;-31
2022/03/08 08:35:42;;;;;;;12.60;7.73;;;3.70;91.00;;;;;;5000345;28;20209;-31
2022/03/08 08:38:09;;;;;;;11.77;7.97;;;3.70;91.00;;;;;;4994827;28;20206;-31
2022/03/08 08:40:36;;;;;;;15.10;8.40;;;3.80;91.00;;;;;;4994226;28;20687;-31
2022/03/08 08:43:05;;;;;;;9.13;7.40;;;3.90;91.00;;;;;;5001601;28;20235;-31
2022/03/08 08:45:36;;;;;;;10.27;7.27;;;3.90;91.10;;;;;;4992007;28;20224;-31
2022/03/08 08:48:06;;;;;;;12.77;6.90;;;4.00;91.10;;;;;;4991120;28;20206;-42
2022/03/08 08:50:36;;;;;;;10.60;6.87;;;4.10;91.20;;;;;;4995806;28;20206;-31
2022/03/08 08:53:06;;;;;;;11.90;7.23;;;4.10;91.20;;;;;;5009849;28;20650;-31
2022/03/08 08:55:37;;;;;;;12.07;7.23;;;4.20;91.20;;;;;;5010715;28;20208;-31
2022/03/08 08:58:05;;;;;;;11.40;7.03;;;4.30;91.30;;;;;;5010971;28;20607;-31
2022/03/08 09:00:34;;;;;;;9.60;6.93;;;4.40;91.40;;;;;;5011488;28;20330;-31
2022/03/08 09:03:02;;;;;;;11.47;7.00;;;4.40;91.40;;;;;;5025983;28;20572;-31
2022/03/08 09:05:37;;;;;;;8.60;7.00;;;4.50;91.40;;;;;;5007788;28;20208;-31
2022/03/08 09:08:04;;;;;;;8.57;6.43;;;4.60;91.40;;;;;;5008076;28;20315;-31
2022/03/08 09:10:34;;;;;;;11.13;6.63;;;4.70;91.50;;;;;;5023006;28;20221;-31
2022/03/08 09:13:01;;;;;;;9.03;5.90;;;4.70;91.50;;;;;;5008227;28;20205;-31
2022/03/08 09:15:31;;;;;;;10.90;6.43;;;4.80;91.50;;;;;;5025067;28;20204;-31
2022/03/08 09:17:59;;;;;;;8.73;5.57;;;4.80;91.50;;;;;;5009377;28;20301;-31
2022/03/08 09:20:29;;;;;;;9.30;6.07;;;4.90;91.60;;;;;;5000172;28;20581;-31
2022/03/08 09:22:56;;;;;;;11.53;6.30;;;4.90;91.60;;;;;;5021758;28;20201;-31
2022/03/08 09:25:26;;;;;;;9.17;6.03;;;5.00;91.70;;;;;;5009072;28;20197;-31
2022/03/08 09:27:53;;;;;;;10.97;6.27;;;5.10;91.70;;;;;;5015328;28;20228;-31
2022/03/08 09:30:21;;;;;;;12.87;6.33;;;5.20;91.80;;;;;;5009076;28;20573;-32
2022/03/08 09:32:51;;;;;;;15.03;5.77;;;5.20;91.80;;;;;;5009800;28;20620;-31
2022/03/08 09:35:18;;;;;;;10.63;5.87;;;5.30;91.80;;;;;;5007042;28;20239;-31
2022/03/08 09:37:46;;;;;;;10.70;5.80;;;5.40;91.90;;;;;;5006494;28;20589;-31
2022/03/08 09:40:13;;;;;;;8.53;6.03;;;5.40;91.90;;;;;;5014585;28;20602;-31
2022/03/08 09:42:40;;;;;;;6.90;5.60;;;5.50;91.90;;;;;;5016052;28;20220;-31
2022/03/08 09:45:10;;;;;;;10.53;5.83;;;5.50;91.90;;;;;;5017580;28;20592;-31
2022/03/08 09:47:38;;;;;;;8.10;5.47;;;5.60;91.90;;;;;;5004953;28;20275;-31
2022/03/08 09:50:11;;;;;;;9.83;5.70;;;5.60;92.00;;;;;;5028699;28;20292;-31
2022/03/08 09:52:43;;;;;;;11.03;5.93;;;5.70;92.00;;;;;;5024273;28;20331;-31
2022/03/08 09:55:14;;;;;;;17.20;6.30;;;5.70;92.00;;;;;;5011360;28;20746;-31
2022/03/08 09:57:42;;;;;;;13.27;6.80;;;5.80;92.10;;;;;;5022849;28;20202;-30
2022/03/08 10:00:12;;;;;;;9.67;6.13;;;5.90;92.10;;;;;;5009125;28;20310;-30
2022/03/08 10:02:43;;;;;;;7.83;5.33;;;5.90;92.20;;;;;;5012221;28;20202;-31
2022/03/08 10:05:11;;;;;;;8.97;5.40;;;6.00;92.20;;;;;;5009704;28;20584;-31
2022/03/08 10:07:38;;;;;;;7.23;5.30;;;6.00;92.20;;;;;;5010453;28;20205;-31
2022/03/08 10:10:06;;;;;;;8.77;5.77;;;6.10;92.30;;;;;;5012032;28;20670;-30
2022/03/08 10:12:59;;;;;;;9.83;6.23;;;6.10;92.00;;;;;;5013177;28;20322;-31
2022/03/08 10:15:26;;;;;;;8.63;5.57;;;6.20;92.30;;;;;;5017416;28;20208;-31
2022/03/08 10:17:56;;;;;;;8.37;5.50;;;6.20;92.30;;;;;;5015569;28;20201;-31
2022/03/08 10:20:30;;;;;;;10.03;5.37;;;6.30;92.40;;;;;;5013011;28;20218;-31
2022/03/08 10:22:59;;;;;;;9.93;5.30;;;6.40;92.30;;;;;;5020303;28;20216;-31
2022/03/08 10:25:31;;;;;;;7.50;5.20;;;6.50;92.50;;;;;;5021565;28;20204;-31
2022/03/08 10:28:02;;;;;;;9.00;5.40;;;6.50;92.50;;;;;;5025628;28;20615;-31
2022/03/08 10:30:47;;;;;;;6.00;5.17;;;6.60;92.50;;;;;;5015567;28;20299;-31
2022/03/08 10:33:20;;;;;;;17.90;6.63;;;6.70;92.60;;;;;;5009910;28;20744;-31
2022/03/08 10:35:53;;;;;;;8.47;5.13;;;6.70;92.60;;;;;;5014589;28;20213;-31
2022/03/08 10:38:21;;;;;;;10.10;5.33;;;6.80;92.60;;;;;;5013741;28;20210;-31
2022/03/08 10:40:48;;;;;;;8.30;5.10;;;6.80;92.60;;;;;;5019941;28;20590;-31
2022/03/08 10:43:17;;;;;;;10.57;5.93;;;6.90;92.50;;;;;;5007717;28;20209;-31
2022/03/08 10:45:52;;;;;;;9.77;5.23;;;6.90;92.70;;;;;;5001031;28;20337;-31
2022/03/08 10:48:26;;;;;;;8.40;5.30;;;7.00;92.60;;;;;;5006253;28;20296;-31
2022/03/08 10:50:54;;;;;;;11.80;5.27;;;7.10;92.70;;;;;;5022599;28;20255;-31
2022/03/08 10:53:26;;;;;;;10.13;5.43;;;7.20;92.90;;;;;;5019555;28;20320;-30
2022/03/08 10:55:55;;;;;;;9.90;5.67;;;7.20;92.90;;;;;;5020824;28;20298;-31
2022/03/08 10:58:22;;;;;;;7.70;5.10;;;7.30;92.90;;;;;;5014692;28;20205;-31
2022/03/08 11:00:54;;;;;;;6.87;4.90;;;7.40;93.00;;;;;;5023632;28;20312;-31
2022/03/08 11:03:25;;;;;;;6.53;4.83;;;7.40;93.00;;;;;;5008556;28;20198;-32
2022/03/08 11:06:05;;;;;;;6.90;5.03;;;7.50;93.00;;;;;;5026919;28;20683;-32
2022/03/08 11:08:33;;;;;;;11.63;4.60;;;7.50;93.10;;;;;;5014511;28;20210;-31
2022/03/08 11:11:00;;;;;;;5.63;4.47;;;7.60;93.10;;;;;;5013225;28;20210;-31
2022/03/08 11:13:28;;;;;;;5.53;4.87;;;7.70;93.20;;;;;;5010277;28;20292;-32
2022/03/08 11:15:56;;;;;;;8.77;4.57;;;7.70;93.10;;;;;;5008295;28;20636;-31
2022/03/08 11:18:27;;;;;;;7.27;3.87;;;7.80;93.10;;;;;;5012140;28;20243;-31
2022/03/08 11:21:01;;;;;;;9.00;4.27;;;7.80;93.20;;;;;;5020981;28;20221;-32
2022/03/08 11:23:29;;;;;;;8.30;3.93;;;7.90;93.20;;;;;;5013269;28;20726;-32
2022/03/08 11:26:00;;;;;;;4.57;3.90;;;8.00;93.20;;;;;;5007328;28;20605;-31
2022/03/08 11:28:31;;;;;;;4.30;3.63;;;8.00;93.20;;;;;;5013147;28;20198;-32
2022/03/08 11:30:58;;;;;;;5.77;3.83;;;8.10;93.20;;;;;;5006529;28;20300;-32
2022/03/08 11:33:48;;;;;;;4.80;4.00;;;8.20;93.30;;;;;;5000794;28;20286;-31
2022/03/08 11:36:15;;;;;;;4.80;3.57;;;8.30;93.30;;;;;;5011689;28;20682;-31
2022/03/08 11:39:11;;;;;;;9.50;3.77;;;8.30;93.40;;;;;;5013320;28;20225;-31
2022/03/08 11:41:41;;;;;;;7.50;4.20;;;8.40;93.50;;;;;;5007506;28;20233;-32
2022/03/08 11:44:40;;;;;;;7.43;4.10;;;8.50;93.40;;;;;;5020610;28;20212;-31
2022/03/08 11:47:14;;;;;;;6.73;4.17;;;8.50;93.20;;;;;;5024950;28;20195;-31
2022/03/08 11:49:56;;;;;;;7.77;4.43;;;8.60;93.50;;;;;;5009417;28;20240;-31
2022/03/08 11:52:27;;;;;;;15.93;4.93;;;8.60;93.50;;;;;;5013939;28;20239;-32
2022/03/08 11:55:03;;;;;;;6.27;4.43;;;8.70;93.30;;;;;;5019162;28;20295;-31
2022/03/08 11:57:54;;;;;;;8.97;4.00;;;8.70;93.40;;;;;;5017944;28;20258;-31
2022/03/08 12:00:37;;;;;;;9.40;4.53;;;8.80;93.50;;;;;;5005832;28;20279;-32
2022/03/08 12:03:10;;;;;;;10.33;4.23;;;8.90;93.50;;;;;;5008310;28;20284;-32
2022/03/08 12:05:40;;;;;;;7.53;4.27;;;8.90;93.30;;;;;;5008839;28;20210;-31
2022/03/08 12:08:23;;;;;;;8.50;3.90;;;9.00;93.50;;;;;;5012423;28;20754;-31
2022/03/08 12:10:58;;;;;;;5.83;4.17;;;9.00;93.50;;;;;;5012667;28;21069;-31
2022/03/08 12:13:49;;;;;;;6.87;4.30;;;9.10;93.70;;;;;;5024297;28;20201;-31
2022/03/08 12:16:25;;;;;;;4.90;3.83;;;9.10;93.60;;;;;;5014527;28;20223;-32
2022/03/08 12:18:55;;;;;;;5.00;3.80;;;9.20;93.70;;;;;;5013882;28;20204;-31
2022/03/08 12:21:24;;;;;;;4.47;3.63;;;9.20;93.70;;;;;;5012582;28;20235;-31
2022/03/08 12:23:57;;;;;;;4.80;3.90;;;9.30;93.80;;;;;;5018922;28;20289;-30
2022/03/08 12:26:38;;;;;;;5.37;4.00;;;9.30;93.80;;;;;;5007586;28;20309;-30
2022/03/08 12:29:28;;;;;;;6.33;3.87;;;9.40;93.80;;;;;;5010102;28;20301;-32
2022/03/08 12:31:58;;;;;;;9.80;4.63;;;9.40;93.80;;;;;;5022635;28;20292;-30
2022/03/08 12:34:45;;;;;;;9.23;4.47;;;9.50;93.60;;;;;;5007698;28;20202;-31
2022/03/08 12:37:46;;;;;;;7.33;4.37;;;9.50;93.50;;;;;;5000397;28;20283;-31
2022/03/08 12:40:15;;;;;;;7.27;4.93;;;9.50;93.70;;;;;;5006677;28;20219;-31
2022/03/08 12:43:00;;;;;;;5.67;4.03;;;9.60;94.00;;;;;;5016290;28;20595;-31
2022/03/08 12:45:39;;;;;;;5.47;4.23;;;9.70;93.90;;;;;;5006208;28;20200;-44
2022/03/08 12:48:21;;;;;;;4.77;3.90;;;9.80;94.00;;;;;;5020815;28;20679;-43
2022/03/08 12:50:52;;;;;;;3.93;3.23;;;9.80;94.00;;;;;;5010355;28;20614;-44
2022/03/08 12:53:27;;;;;;;5.57;3.73;;;9.80;94.00;;;;;;5016081;28;20237;-43
2022/03/08 12:55:56;;;;;;;6.27;3.90;;;9.90;94.00;;;;;;5014934;28;20592;-44
2022/03/08 12:58:32;;;;;;;5.50;4.17;;;10.00;93.50;;;;;;4999238;28;20723;-45
2022/03/08 13:01:02;;;;;;;5.53;3.87;;;10.00;93.40;;;;;;5013489;28;20212;-44
2022/03/08 13:03:36;;;;;;;8.97;4.30;;;10.00;93.40;;;;;;5010470;28;20205;-43
2022/03/08 13:06:08;;;;;;;6.43;4.00;;;10.10;93.90;;;;;;5005003;28;20205;-43